Flight Track Log - Related Links

Times and Time Zones

All times are in EDT time to prevent confusion due to time zone crossing. See the EJA829P flight status page for this flight to view local times or setup timezone preferences in your user account.

Time Position Orientation Groundspeed Altitude Reporting Facility
EDT Latitude Longitude Course Direction KTS MPH feet Rate Location/Type
Thu 05:58:34 PM 34.8669 -82.1478 175° South 219 252 8,800  Level Atlanta Center
Thu 05:59:34 PM 34.8003 -82.1442 177° South 213 245 13,000 3,600 Climbing Atlanta Center
Thu 06:00:34 PM 34.7208 -82.1333 174° South 241 277 16,000 2,600 Climbing Atlanta Center
Thu 06:01:34 PM 34.6203 -82.1206 174° South 302 348 18,200 2,400 Climbing Atlanta Center
Thu 06:02:00 PM 34.3554 -82.1377 175° South  Level Estimated
Thu 06:02:34 PM 34.5156 -82.0950 169° South 364 419 20,800  Level Atlanta Center
Thu 06:03:34 PM 34.4047 -82.0750 172° South 392 451 23,400 2,650 Climbing Atlanta Center
Thu 06:04:34 PM 34.2978 -82.0547 171° South 392 451 26,100 2,100 Climbing Atlanta Center
Thu 06:05:34 PM 34.1869 -82.0297 169° South 397 457 27,600 1,500 Climbing Atlanta Center
Thu 06:06:34 PM 34.0739 -82.0075 171° South 407 468 29,100 1,550 Climbing Atlanta Center
Thu 06:07:34 PM 33.9586 -81.9850 171° South 414 476 30,700 1,550 Climbing Atlanta Center
Thu 06:08:34 PM 33.8456 -81.9603 170° South 414 476 32,200 1,500 Climbing Atlanta Center
Thu 06:09:34 PM 33.7325 -81.9406 172° South 414 476 33,700 1,500 Climbing Atlanta Center
Thu 06:10:34 PM 33.6214 -81.9183 171° South 409 471 35,200 1,500 Climbing Atlanta Center
Thu 06:11:34 PM 33.5125 -81.8986 171° South 409 471 36,700 1,400 Climbing Atlanta Center
Thu 06:12:34 PM 33.4078 -81.8789 171° South 403 464 38,000 650 Climbing Atlanta Center
Thu 06:13:34 PM 33.2989 -81.8567 170° South 398 458 38,000  Level Atlanta Center
Thu 06:14:34 PM 33.1858 -81.8372 172° South 398 458 38,000  Level Atlanta Center
Thu 06:15:34 PM 33.0706 -81.8128 170° South 409 471 38,000  Level Atlanta Center
Thu 06:16:34 PM 32.9533 -81.7911 171° South 414 476 38,000  Level Atlanta Center
Thu 06:17:14 PM 32.8922 -81.7769 169° South 417 480 38,000  Level Jacksonville Center
Thu 06:18:14 PM 32.7814 -81.7583 172° South 405 466 38,000  Level Jacksonville Center
Thu 06:19:14 PM 32.6789 -81.7350 169° South 395 455 38,000  Level Jacksonville Center
Thu 06:20:14 PM 32.5575 -81.6847 161° South 409 471 38,000 50 Level Jacksonville Center
Thu 06:21:14 PM 32.4547 -81.6419 161° South 429 494 38,100  Climbing Jacksonville Center
Thu 06:22:14 PM 32.3289 -81.5894 161° South 434 499 38,000 -50 Descending Jacksonville Center
Thu 06:23:14 PM 32.2136 -81.5419 161° South 434 499 38,000  Level Jacksonville Center
Thu 06:24:14 PM 32.0961 -81.4972 162° South 440 506 38,000  Level Jacksonville Center
Thu 06:25:14 PM 31.9831 -81.4475 160° South 440 506 38,000  Level Jacksonville Center
Thu 06:26:14 PM 31.8822 -81.4025 159° South 440 506 38,000  Level Jacksonville Center
Thu 06:27:14 PM 31.7522 -81.3508 161° South 445 512 38,000  Level Jacksonville Center
Thu 06:28:14 PM 31.6408 -81.3039 160° South 444 511 38,000  Level Jacksonville Center
Thu 06:29:14 PM 31.5214 -81.2547 161° South 449 517 38,000  Level Jacksonville Center
Thu 06:30:14 PM 31.4078 -81.2058 160° South 449 517 38,000  Level Jacksonville Center
Thu 06:31:14 PM 31.3008 -81.1711 164° South 449 517 38,000  Level Jacksonville Center
Thu 06:32:14 PM 31.1903 -81.1708 180° South 425 489 38,000  Level Jacksonville Center
Thu 06:33:14 PM 31.0817 -81.1678 179° South 413 475 38,000  Level Jacksonville Center
Thu 06:34:14 PM 30.9689 -81.1650 179° South 406 467 38,000  Level Jacksonville Center
Thu 06:35:14 PM 30.8581 -81.1622 179° South 401 461 38,000 -850 Level Jacksonville Center
Thu 06:36:14 PM 30.7475 -81.1547 177° South 401 461 36,300 -1,850 Descending Jacksonville Center
Thu 06:37:14 PM 30.6431 -81.1542 180° South 401 461 34,300 -1,150 Descending Jacksonville Center
Thu 06:38:14 PM 30.5344 -81.1489 178° South 395 455 34,000 -150 Descending Jacksonville Center
Thu 06:39:14 PM 30.4278 -81.1483 180° South 390 449 34,000  Level Jacksonville Center
Thu 06:40:14 PM 30.3214 -81.1456 179° South 384 442 34,000  Level Jacksonville Center
Thu 06:41:14 PM 30.2128 -81.1428 179° South 384 442 34,000  Level Jacksonville Center
Thu 06:42:14 PM 30.1042 -81.1375 178° South 384 442 34,000  Level Jacksonville Center
Thu 06:43:14 PM 29.9933 -81.1347 179° South 384 442 34,000 -600 Level Jacksonville Center
Thu 06:44:14 PM 29.8869 -81.1319 179° South 384 442 32,800 -1,800 Descending Jacksonville Center
Thu 06:45:14 PM 29.7803 -81.1267 178° South 384 442 30,400 -2,400 Descending Jacksonville Center
Thu 06:46:14 PM 29.6719 -81.1286 181° South 384 442 28,000 -2,400 Descending Jacksonville Center
Thu 06:47:14 PM 29.5717 -81.1233 177° South 379 436 25,600 -2,600 Descending Jacksonville Center
Thu 06:48:14 PM 29.4650 -81.1156 176° South 358 412 22,800 -2,600 Descending Jacksonville Center
Thu 06:49:14 PM 29.3669 -81.1172 181° South 349 402 20,400 -2,400 Descending Jacksonville Center
Thu 06:50:14 PM 29.2708 -81.1119 177° South 344 396 18,000 -2,350 Descending Jacksonville Center
Thu 06:51:14 PM 29.1767 -81.1042 176° South 349 402 15,700 -2,350 Descending Jacksonville Center
Thu 06:52:14 PM 29.0847 -81.0964 176° South 330 380 13,300 -1,850 Descending Jacksonville Center
Thu 06:53:14 PM 29.0011 -81.0883 175° South 311 358 12,000 -1,500 Descending Jacksonville Center
Thu 06:54:14 PM 28.9197 -81.0733 171° South 306 352 10,300 -1,750 Descending Jacksonville Center
Thu 06:55:14 PM 28.8400 -81.0603 172° South 301 346 8,500 -1,800 Descending Jacksonville Center
Thu 06:56:14 PM 28.7672 -81.0711 187° South 269 310 6,700 -1,250 Descending Jacksonville Center
Thu 06:57:14 PM 28.7453 -81.1403 250° West 218 251 6,000 -850 Descending Jacksonville Center
Thu 06:58:14 PM 28.7169 -81.2094 245° Southwest 218 251 5,000 -1,450 Descending Jacksonville Center
Thu 06:59:14 PM 28.6694 -81.2506 217° Southwest 218 251 3,100 -1,467 Descending Jacksonville Center
Thu 06:59:44 PM 28.6500 -81.2667 216° Southwest 218 251 2,800 -333 Descending Orlando TRACON
Thu 07:00:44 PM 28.6000 -81.3000 210° Southwest 200 230 2,600 -157 Descending Orlando TRACON
Thu 07:01:39 PM 28.5500 -81.3167 196° South 194 223 2,500 -522 Descending Orlando TRACON
Thu 07:02:39 PM 28.5000 -81.3167 180° South 162 186 1,600 -950 Descending Orlando TRACON
Thu 07:03:39 PM 28.4667 -81.3167 180° South 114 131 600 -1,000 Descending Orlando TRACON
Thu 07:05:00 PM 28.4294 -81.3090 180° South  Level Estimated
Thu 07:12:00 PM 28.4294 -81.3090 336° Northwest  Level Estimated
Thu 07:13:00 PM 28.4294 -81.3090 336° Northwest  Level Estimated
Thu 07:14:00 PM 28.4294 -81.3090 336° Northwest  Level Estimated
Thu 07:15:00 PM 28.4294 -81.3090 336° Northwest  Level Estimated

Login

Don't have an account? Register now (free) for customized features, flight alerts, and more!